createdAt,value
2023-05-17T00:00:23.400Z,10.70
2023-05-17T00:02:50.123Z,10.70
2023-05-17T00:05:16.843Z,10.60
2023-05-17T00:07:43.618Z,10.50
2023-05-17T00:10:10.706Z,10.50
2023-05-17T00:12:37.536Z,10.50
2023-05-17T00:15:04.629Z,10.50
2023-05-17T00:17:31.883Z,10.50
2023-05-17T00:19:58.572Z,10.40
2023-05-17T00:22:25.271Z,10.40
2023-05-17T00:24:51.912Z,10.50
2023-05-17T00:27:18.559Z,10.30
2023-05-17T00:29:45.310Z,10.30
2023-05-17T00:32:11.965Z,10.30
2023-05-17T00:34:38.674Z,10.30
2023-05-17T00:37:05.309Z,10.40
2023-05-17T00:39:31.971Z,10.30
2023-05-17T00:41:59.213Z,10.30
2023-05-17T00:44:25.927Z,10.20
2023-05-17T00:46:52.558Z,10.20
2023-05-17T00:49:19.496Z,10.20
2023-05-17T00:51:46.181Z,10.10
2023-05-17T00:54:13.488Z,10.10
2023-05-17T00:56:40.287Z,10.20
2023-05-17T00:59:06.974Z,10.20
2023-05-17T01:01:34.434Z,10.10
2023-05-17T01:04:01.203Z,10.10
2023-05-17T01:06:27.949Z,10.10
2023-05-17T01:08:55.018Z,10.10
2023-05-17T01:11:27.985Z,10.00
2023-05-17T01:14:18.830Z,10.10
2023-05-17T01:16:49.144Z,10.00
2023-05-17T01:19:32.900Z,10.10
2023-05-17T01:22:08.736Z,10.00
2023-05-17T01:24:38.851Z,9.90
2023-05-17T01:27:07.030Z,10.00
2023-05-17T01:29:35.367Z,10.00
2023-05-17T01:32:02.816Z,10.00
2023-05-17T01:34:29.663Z,9.90
2023-05-17T01:36:57.594Z,10.00
2023-05-17T01:39:24.279Z,9.90
2023-05-17T01:42:05.048Z,9.90
2023-05-17T01:44:45.686Z,9.90
2023-05-17T01:47:16.329Z,9.90
2023-05-17T01:49:46.864Z,9.80
2023-05-17T01:52:16.964Z,9.90
2023-05-17T01:54:47.244Z,9.90
2023-05-17T01:57:14.920Z,9.80
2023-05-17T01:59:42.140Z,9.80
2023-05-17T02:02:09.492Z,9.80
2023-05-17T02:04:36.719Z,9.80
2023-05-17T02:07:03.661Z,9.80
2023-05-17T02:09:32.072Z,9.70
2023-05-17T02:11:58.794Z,9.70
2023-05-17T02:14:25.455Z,9.70
2023-05-17T02:16:52.497Z,9.60
2023-05-17T02:19:19.270Z,9.60
2023-05-17T02:21:46.002Z,9.60
2023-05-17T02:24:12.628Z,9.50
2023-05-17T02:26:42.858Z,9.60
2023-05-17T02:29:11.125Z,9.60
2023-05-17T02:31:37.827Z,9.60
2023-05-17T02:34:04.734Z,9.60
2023-05-17T02:36:31.649Z,9.60
2023-05-17T02:38:58.520Z,9.60
2023-05-17T02:41:25.171Z,9.60
2023-05-17T02:43:52.246Z,9.60
2023-05-17T02:46:18.901Z,9.60
2023-05-17T02:48:45.624Z,9.70
2023-05-17T02:51:12.464Z,9.60
2023-05-17T02:53:39.100Z,9.50
2023-05-17T02:56:06.071Z,9.50
2023-05-17T02:58:32.716Z,9.50
2023-05-17T03:00:59.366Z,9.60
2023-05-17T03:03:26.102Z,9.50
2023-05-17T03:05:53.377Z,9.60
2023-05-17T03:08:20.046Z,9.50
2023-05-17T03:10:47.090Z,9.50
2023-05-17T03:13:13.752Z,9.40
2023-05-17T03:15:40.757Z,9.40
2023-05-17T03:18:07.480Z,9.40
2023-05-17T03:20:34.174Z,9.50
2023-05-17T03:23:00.811Z,9.50
2023-05-17T03:25:27.568Z,9.50
2023-05-17T03:27:54.350Z,9.50
2023-05-17T03:30:21.216Z,9.50
2023-05-17T03:32:48.042Z,9.50
2023-05-17T03:35:14.804Z,9.40
2023-05-17T03:37:41.525Z,9.50
2023-05-17T03:40:08.435Z,9.40
2023-05-17T03:42:35.092Z,9.50
2023-05-17T03:45:01.756Z,9.50
2023-05-17T03:47:28.503Z,9.50
2023-05-17T03:49:55.194Z,9.60
2023-05-17T03:52:21.838Z,9.50
2023-05-17T03:54:48.532Z,9.50
2023-05-17T03:57:15.242Z,9.40
2023-05-17T03:59:41.940Z,9.40
2023-05-17T04:02:08.657Z,9.40
2023-05-17T04:04:35.362Z,9.50
2023-05-17T04:07:02.288Z,9.50
2023-05-17T04:09:31.135Z,9.60
2023-05-17T04:11:57.779Z,9.50
2023-05-17T04:14:24.422Z,9.50
2023-05-17T04:16:51.331Z,9.50
2023-05-17T04:19:18.302Z,9.40
2023-05-17T04:21:45.810Z,9.40
2023-05-17T04:24:12.488Z,9.30
2023-05-17T04:26:39.920Z,9.40
2023-05-17T04:29:06.881Z,9.30
2023-05-17T04:31:33.590Z,9.30
2023-05-17T04:34:00.640Z,9.30
2023-05-17T04:36:27.319Z,9.30
2023-05-17T04:38:53.986Z,9.20
2023-05-17T04:41:20.762Z,9.30
2023-05-17T04:43:47.649Z,9.30
2023-05-17T04:46:14.306Z,9.30
2023-05-17T04:48:41.651Z,9.30
2023-05-17T04:51:08.368Z,9.40
2023-05-17T04:53:35.056Z,9.40
2023-05-17T04:56:02.122Z,9.40
2023-05-17T04:58:28.790Z,9.40
2023-05-17T05:00:56.188Z,9.50
2023-05-17T05:03:23.150Z,9.50
2023-05-17T05:05:49.924Z,9.50
2023-05-17T05:08:16.570Z,9.50
2023-05-17T05:10:43.277Z,9.50
2023-05-17T05:13:09.975Z,9.60
2023-05-17T05:15:36.646Z,9.60
2023-05-17T05:18:03.676Z,9.60
2023-05-17T05:20:31.607Z,9.60
2023-05-17T05:22:58.909Z,9.60
2023-05-17T05:25:25.737Z,9.60
2023-05-17T05:27:52.669Z,9.40
2023-05-17T05:30:22.416Z,9.40
2023-05-17T05:32:50.191Z,9.40
2023-05-17T05:35:17.347Z,9.40
2023-05-17T05:37:44.689Z,9.40
2023-05-17T05:40:11.814Z,9.40
2023-05-17T05:42:38.486Z,9.50
2023-05-17T05:45:05.445Z,9.50
2023-05-17T05:47:32.181Z,9.30
2023-05-17T05:49:58.897Z,9.20
2023-05-17T05:52:25.591Z,9.30
2023-05-17T05:54:52.302Z,9.10
2023-05-17T05:57:19.068Z,9.00
2023-05-17T05:59:45.858Z,9.00
2023-05-17T06:02:12.929Z,9.10
2023-05-17T06:04:45.369Z,9.10
2023-05-17T06:07:13.321Z,9.10
2023-05-17T06:09:40.085Z,9.10
2023-05-17T06:12:06.780Z,9.10
2023-05-17T06:14:33.672Z,9.10
2023-05-17T06:17:00.467Z,9.20
2023-05-17T06:19:27.258Z,9.30
2023-05-17T06:21:54.002Z,9.10
2023-05-17T06:24:21.163Z,9.20
2023-05-17T06:26:48.536Z,9.20
2023-05-17T06:29:15.201Z,9.00
2023-05-17T06:31:41.895Z,9.00
2023-05-17T06:34:08.559Z,9.00
2023-05-17T06:36:35.992Z,9.00
2023-05-17T06:39:04.181Z,9.00
2023-05-17T06:41:30.939Z,9.10
2023-05-17T06:43:57.622Z,9.10
2023-05-17T06:46:24.539Z,9.00
2023-05-17T06:48:51.637Z,9.00
2023-05-17T06:51:18.470Z,9.00
2023-05-17T06:53:45.184Z,9.00
2023-05-17T06:56:11.921Z,9.20
2023-05-17T06:58:38.823Z,9.20
2023-05-17T07:01:06.008Z,9.10
2023-05-17T07:03:32.808Z,9.20
2023-05-17T07:05:59.722Z,9.10
2023-05-17T07:08:26.421Z,9.20
2023-05-17T07:10:57.623Z,9.10
2023-05-17T07:13:24.301Z,9.10
2023-05-17T07:15:51.084Z,9.00
2023-05-17T07:18:17.872Z,9.10
2023-05-17T07:20:44.635Z,9.10
2023-05-17T07:23:11.337Z,9.10
2023-05-17T07:25:40.418Z,9.00
2023-05-17T07:28:07.132Z,9.10
2023-05-17T07:30:33.849Z,9.20
2023-05-17T07:33:00.664Z,9.10
2023-05-17T07:35:27.546Z,9.10
2023-05-17T07:37:54.441Z,9.10
2023-05-17T07:40:22.061Z,9.20
2023-05-17T07:42:48.851Z,9.10
2023-05-17T07:45:15.682Z,9.10
2023-05-17T07:47:42.394Z,9.00
2023-05-17T07:50:09.306Z,9.00
2023-05-17T07:52:35.980Z,9.10
2023-05-17T07:55:04.099Z,9.10
2023-05-17T07:57:30.921Z,9.00
2023-05-17T07:59:57.548Z,9.00
2023-05-17T08:02:24.213Z,9.00
2023-05-17T08:04:51.101Z,9.00
2023-05-17T08:07:17.892Z,8.90
2023-05-17T08:09:45.416Z,9.00
2023-05-17T08:12:12.208Z,9.00
2023-05-17T08:14:39.324Z,8.90
2023-05-17T08:17:06.020Z,8.90
2023-05-17T08:19:32.931Z,8.80
2023-05-17T08:21:59.900Z,8.90
2023-05-17T08:24:26.558Z,8.80
2023-05-17T08:26:53.256Z,8.90
2023-05-17T08:29:19.952Z,8.90
2023-05-17T08:31:46.714Z,8.90
2023-05-17T08:34:13.541Z,8.90
2023-05-17T08:36:40.374Z,8.90
2023-05-17T08:39:08.485Z,8.90
2023-05-17T08:41:37.974Z,8.80
2023-05-17T08:44:05.245Z,8.90
2023-05-17T08:46:36.846Z,8.90
2023-05-17T08:49:06.119Z,8.90
2023-05-17T08:51:32.851Z,9.00
2023-05-17T08:53:59.967Z,9.00
2023-05-17T08:56:28.950Z,9.00
2023-05-17T08:58:58.879Z,9.00
2023-05-17T09:01:27.213Z,9.00
2023-05-17T09:03:54.843Z,9.00
2023-05-17T09:06:22.347Z,8.90
2023-05-17T09:08:53.043Z,9.00
2023-05-17T09:11:30.052Z,9.00
2023-05-17T09:14:00.243Z,9.10
2023-05-17T09:16:31.119Z,9.00
2023-05-17T09:18:58.550Z,9.10
2023-05-17T09:21:26.154Z,9.00
2023-05-17T09:24:04.782Z,9.00
2023-05-17T09:26:39.198Z,9.00
2023-05-17T09:29:12.935Z,9.00
2023-05-17T09:31:40.298Z,9.00
2023-05-17T09:34:08.150Z,9.10
2023-05-17T09:36:36.196Z,9.20
2023-05-17T09:39:07.757Z,9.20
2023-05-17T09:41:41.483Z,9.30
2023-05-17T09:44:11.790Z,9.20
2023-05-17T09:46:41.891Z,9.20
2023-05-17T09:49:09.462Z,9.30
2023-05-17T09:51:36.487Z,9.30
2023-05-17T09:54:03.362Z,9.40
2023-05-17T09:56:30.932Z,9.40
2023-05-17T09:58:59.112Z,9.50
2023-05-17T10:01:26.952Z,9.50
2023-05-17T10:03:54.562Z,9.50
2023-05-17T10:06:43.714Z,9.50
2023-05-17T10:09:13.689Z,9.60
2023-05-17T10:11:41.244Z,9.60
2023-05-17T10:14:10.029Z,9.60
2023-05-17T10:16:37.859Z,9.60
2023-05-17T10:19:05.210Z,9.60
2023-05-17T10:21:32.285Z,9.60
2023-05-17T10:24:01.578Z,9.60
2023-05-17T10:26:28.821Z,9.50
2023-05-17T10:29:03.154Z,9.60
2023-05-17T10:31:30.910Z,9.60
2023-05-17T10:33:58.801Z,9.60
2023-05-17T10:36:26.229Z,9.60
2023-05-17T10:38:53.223Z,9.70
2023-05-17T10:41:21.803Z,9.70
2023-05-17T10:43:48.640Z,9.80
2023-05-17T10:46:15.785Z,9.80
2023-05-17T10:48:47.833Z,9.80
2023-05-17T10:51:16.720Z,9.90
2023-05-17T10:54:02.169Z,10.00
2023-05-17T10:56:30.458Z,10.10
2023-05-17T10:59:19.844Z,10.10
2023-05-17T11:02:18.692Z,10.00
2023-05-17T11:04:52.672Z,10.30
2023-05-17T11:07:23.872Z,10.50
2023-05-17T11:09:59.951Z,10.70
2023-05-17T11:12:33.897Z,10.90
2023-05-17T11:15:01.447Z,11.00
2023-05-17T11:17:33.919Z,11.10
2023-05-17T11:20:07.261Z,11.30
2023-05-17T11:22:35.067Z,11.50
2023-05-17T11:25:01.894Z,11.50
2023-05-17T11:27:35.823Z,11.60
2023-05-17T11:30:10.513Z,11.70
2023-05-17T11:32:37.250Z,11.70
2023-05-17T11:35:04.149Z,11.70
2023-05-17T11:37:31.383Z,11.50
2023-05-17T11:40:02.627Z,11.40
2023-05-17T11:42:29.552Z,11.50
2023-05-17T11:45:01.272Z,11.80
2023-05-17T11:47:28.691Z,12.00
2023-05-17T11:49:56.622Z,12.10
2023-05-17T11:52:23.987Z,12.30
2023-05-17T11:54:51.740Z,12.30
2023-05-17T11:57:18.728Z,12.20
2023-05-17T11:59:45.494Z,12.40
2023-05-17T12:02:25.925Z,12.50
2023-05-17T12:04:52.793Z,12.40
2023-05-17T12:07:19.595Z,12.50
2023-05-17T12:09:46.352Z,12.50
2023-05-17T12:12:13.431Z,12.60
2023-05-17T12:14:42.930Z,12.60
2023-05-17T12:17:13.067Z,12.40
2023-05-17T12:19:39.872Z,12.30
2023-05-17T12:22:08.464Z,12.10
2023-05-17T12:24:38.947Z,12.20
2023-05-17T12:27:06.081Z,12.50
2023-05-17T12:29:32.856Z,12.60
2023-05-17T12:32:00.027Z,12.60
2023-05-17T12:34:27.110Z,12.70
2023-05-17T12:36:53.919Z,12.70
2023-05-17T12:39:23.915Z,12.80
2023-05-17T12:41:52.310Z,12.90
2023-05-17T12:44:22.028Z,12.90
2023-05-17T12:46:53.658Z,13.00
2023-05-17T12:49:23.518Z,12.90
2023-05-17T12:51:50.559Z,12.90
2023-05-17T12:54:26.325Z,13.00
2023-05-17T12:56:53.046Z,13.00
2023-05-17T12:59:21.164Z,13.10
2023-05-17T13:01:48.706Z,13.20
2023-05-17T13:04:16.459Z,13.30
2023-05-17T13:06:53.134Z,13.40
2023-05-17T13:09:21.823Z,13.30
2023-05-17T13:11:52.296Z,13.30
2023-05-17T13:14:38.898Z,13.30
2023-05-17T13:17:06.359Z,13.30
2023-05-17T13:19:33.552Z,13.30
2023-05-17T13:22:00.504Z,13.30
2023-05-17T13:24:28.099Z,13.20
2023-05-17T13:26:54.738Z,13.20
2023-05-17T13:29:31.929Z,13.00
2023-05-17T13:32:06.552Z,12.90
2023-05-17T13:34:33.245Z,12.70
2023-05-17T13:36:59.886Z,12.50
2023-05-17T13:39:26.543Z,12.50
2023-05-17T13:41:53.310Z,12.40
2023-05-17T13:44:20.014Z,12.40
2023-05-17T13:46:46.684Z,12.30
2023-05-17T13:49:14.145Z,12.40
2023-05-17T13:51:40.826Z,12.30
2023-05-17T13:54:07.552Z,12.40
2023-05-17T13:56:34.635Z,12.40
2023-05-17T13:59:01.639Z,12.30
2023-05-17T14:01:28.362Z,12.30
2023-05-17T14:03:55.437Z,12.30
2023-05-17T14:06:22.564Z,12.20
2023-05-17T14:08:49.685Z,12.20
2023-05-17T14:11:16.543Z,12.10
2023-05-17T14:13:43.355Z,12.00
2023-05-17T14:16:10.058Z,11.90
2023-05-17T14:18:37.023Z,11.80
2023-05-17T14:21:03.857Z,11.80
2023-05-17T14:23:30.625Z,11.70
2023-05-17T14:25:58.215Z,11.60
2023-05-17T14:28:24.856Z,11.60
2023-05-17T14:30:51.996Z,11.60
2023-05-17T14:33:18.881Z,11.50
2023-05-17T14:35:45.871Z,11.50
2023-05-17T14:38:12.548Z,11.40
2023-05-17T14:40:39.216Z,11.40
2023-05-17T14:43:06.352Z,11.40
2023-05-17T14:45:33.378Z,11.40
2023-05-17T14:48:00.068Z,11.50
2023-05-17T14:50:26.994Z,11.50
2023-05-17T14:52:53.911Z,11.50
2023-05-17T14:55:20.665Z,11.60
2023-05-17T14:57:47.356Z,11.70
2023-05-17T15:00:14.396Z,11.70
2023-05-17T15:02:41.253Z,11.70
2023-05-17T15:05:08.287Z,11.70
2023-05-17T15:07:35.074Z,11.80
2023-05-17T15:10:02.770Z,11.80
2023-05-17T15:12:29.663Z,11.80
2023-05-17T15:14:57.339Z,11.70
2023-05-17T15:17:24.142Z,11.70
2023-05-17T15:19:51.487Z,11.70
2023-05-17T15:22:18.413Z,11.70
2023-05-17T15:24:45.377Z,11.80
2023-05-17T15:27:16.471Z,11.80
2023-05-17T15:29:44.665Z,11.80
2023-05-17T15:32:11.372Z,11.80
2023-05-17T15:34:38.046Z,11.90
2023-05-17T15:37:04.716Z,11.90
2023-05-17T15:39:31.408Z,11.90
2023-05-17T15:41:58.118Z,11.90
2023-05-17T15:44:24.899Z,11.90
2023-05-17T15:46:51.731Z,11.90
2023-05-17T15:49:18.683Z,11.90
2023-05-17T15:51:45.472Z,11.90
2023-05-17T15:54:12.176Z,11.90
2023-05-17T15:56:38.872Z,11.80
2023-05-17T15:59:05.717Z,11.80
2023-05-17T16:01:32.429Z,11.80
2023-05-17T16:03:59.154Z,11.70
2023-05-17T16:06:25.888Z,11.70
2023-05-17T16:08:53.012Z,11.70
2023-05-17T16:11:20.031Z,11.60
2023-05-17T16:13:46.750Z,11.50
2023-05-17T16:16:14.556Z,11.50
2023-05-17T16:18:41.433Z,11.50
2023-05-17T16:21:08.183Z,11.50
2023-05-17T16:23:34.865Z,11.50
2023-05-17T16:26:01.527Z,11.50
2023-05-17T16:28:28.318Z,11.50
2023-05-17T16:30:55.035Z,11.50
2023-05-17T16:33:22.070Z,11.50
2023-05-17T16:35:49.213Z,11.40
2023-05-17T16:38:16.640Z,11.40
2023-05-17T16:40:43.400Z,11.40
2023-05-17T16:43:11.111Z,11.40
2023-05-17T16:45:37.816Z,11.40
2023-05-17T16:48:04.564Z,11.30
2023-05-17T16:50:31.918Z,11.40
2023-05-17T16:52:58.743Z,11.40
2023-05-17T16:55:25.461Z,11.30
2023-05-17T16:57:52.114Z,11.40
2023-05-17T17:00:20.059Z,11.40
2023-05-17T17:02:46.767Z,11.30
2023-05-17T17:05:13.467Z,11.30
2023-05-17T17:07:40.108Z,11.40
2023-05-17T17:10:07.161Z,11.30
2023-05-17T17:12:33.931Z,11.40
2023-05-17T17:15:00.696Z,11.40
2023-05-17T17:17:27.419Z,11.40
2023-05-17T17:19:54.447Z,11.30
2023-05-17T17:22:21.077Z,11.40
2023-05-17T17:24:48.200Z,11.30
2023-05-17T17:27:14.859Z,11.30
2023-05-17T17:29:41.605Z,11.30
2023-05-17T17:32:08.587Z,11.30
2023-05-17T17:34:35.447Z,11.30
2023-05-17T17:37:02.094Z,11.30
2023-05-17T17:39:28.748Z,11.20
2023-05-17T17:41:55.488Z,11.20
2023-05-17T17:44:22.259Z,11.10
2023-05-17T17:46:49.226Z,11.00
2023-05-17T17:49:15.996Z,11.00
2023-05-17T17:51:42.760Z,11.00
2023-05-17T17:54:09.410Z,10.90
2023-05-17T17:56:36.189Z,10.90
2023-05-17T17:59:02.908Z,10.80
2023-05-17T18:01:32.310Z,10.70
2023-05-17T18:03:59.183Z,10.70
2023-05-17T18:06:26.232Z,10.60
2023-05-17T18:08:53.085Z,10.50
2023-05-17T18:11:19.754Z,10.50
2023-05-17T18:13:46.924Z,10.40
2023-05-17T18:16:13.748Z,10.30
2023-05-17T18:18:40.730Z,10.20
2023-05-17T18:21:11.417Z,10.10
2023-05-17T18:23:38.246Z,10.10
2023-05-17T18:26:05.069Z,10.00
2023-05-17T18:28:42.012Z,10.00
2023-05-17T18:31:09.814Z,9.90
2023-05-17T18:33:36.518Z,9.80
2023-05-17T18:36:03.335Z,9.80
2023-05-17T18:38:30.068Z,9.70
2023-05-17T18:40:56.703Z,9.60
2023-05-17T18:43:23.380Z,9.60
2023-05-17T18:45:51.314Z,9.60
2023-05-17T18:48:18.166Z,9.60
2023-05-17T18:50:44.926Z,9.50
2023-05-17T18:53:12.932Z,9.50
2023-05-17T18:55:40.006Z,9.50
2023-05-17T18:58:06.989Z,9.50
2023-05-17T19:00:33.816Z,9.50
2023-05-17T19:03:00.669Z,9.50
2023-05-17T19:05:27.313Z,9.50
2023-05-17T19:07:53.960Z,9.50
2023-05-17T19:10:21.569Z,9.50
2023-05-17T19:12:48.651Z,9.60
2023-05-17T19:15:15.801Z,9.60
2023-05-17T19:17:42.618Z,9.60
2023-05-17T19:20:09.704Z,9.60
2023-05-17T19:22:36.457Z,9.60
2023-05-17T19:25:03.137Z,9.50
2023-05-17T19:27:29.799Z,9.50
2023-05-17T19:29:56.530Z,9.40
2023-05-17T19:32:23.269Z,9.40
2023-05-17T19:34:49.988Z,9.50
2023-05-17T19:37:16.989Z,9.60
2023-05-17T19:39:43.881Z,9.60
2023-05-17T19:42:10.955Z,9.60
2023-05-17T19:44:37.662Z,9.60
2023-05-17T19:47:04.754Z,9.60
2023-05-17T19:49:31.534Z,9.60
2023-05-17T19:52:00.790Z,9.60
2023-05-17T19:54:28.139Z,9.60
2023-05-17T19:56:54.875Z,9.60
2023-05-17T19:59:21.611Z,9.60
2023-05-17T20:01:48.343Z,9.60
2023-05-17T20:04:15.194Z,9.50
2023-05-17T20:06:41.956Z,9.50
2023-05-17T20:09:08.640Z,9.50
2023-05-17T20:11:35.528Z,9.50
2023-05-17T20:14:02.254Z,9.60
2023-05-17T20:16:30.746Z,9.60
2023-05-17T20:19:01.122Z,9.50
2023-05-17T20:21:28.051Z,9.50
2023-05-17T20:24:01.188Z,9.50
2023-05-17T20:26:31.847Z,9.50
2023-05-17T20:29:01.779Z,9.50
2023-05-17T20:31:28.491Z,9.50
2023-05-17T20:33:55.153Z,9.50
2023-05-17T20:36:21.880Z,9.40
2023-05-17T20:38:48.573Z,9.40
2023-05-17T20:41:15.982Z,9.50
2023-05-17T20:43:45.229Z,9.50
2023-05-17T20:46:13.195Z,9.50
2023-05-17T20:48:42.748Z,9.50
2023-05-17T20:51:10.246Z,9.50
2023-05-17T20:53:37.245Z,9.50
2023-05-17T20:56:04.369Z,9.50
2023-05-17T20:58:31.162Z,9.50
2023-05-17T21:00:58.245Z,9.50
2023-05-17T21:03:28.327Z,9.50
2023-05-17T21:05:55.331Z,9.50
2023-05-17T21:08:22.430Z,9.40
2023-05-17T21:10:49.584Z,9.40
2023-05-17T21:13:16.469Z,9.40
2023-05-17T21:15:43.346Z,9.40
2023-05-17T21:18:10.997Z,9.40
2023-05-17T21:20:37.951Z,9.50
2023-05-17T21:23:04.766Z,9.50
2023-05-17T21:25:31.741Z,9.40
2023-05-17T21:27:58.646Z,9.40
2023-05-17T21:30:25.321Z,9.40
2023-05-17T21:32:52.031Z,9.40
2023-05-17T21:35:18.751Z,9.40
2023-05-17T21:37:45.410Z,9.40
2023-05-17T21:40:12.264Z,9.40
2023-05-17T21:42:39.046Z,9.40
2023-05-17T21:45:06.248Z,9.40
2023-05-17T21:47:35.806Z,9.40
2023-05-17T21:50:02.958Z,9.40
2023-05-17T21:52:29.633Z,9.40
2023-05-17T21:54:56.286Z,9.40
2023-05-17T21:57:22.939Z,9.40
2023-05-17T21:59:50.821Z,9.40
2023-05-17T22:02:17.644Z,9.40
2023-05-17T22:04:44.334Z,9.40
2023-05-17T22:07:11.361Z,9.40
2023-05-17T22:09:38.187Z,9.40
2023-05-17T22:12:08.358Z,9.40
2023-05-17T22:14:36.477Z,9.40
2023-05-17T22:17:08.355Z,9.40
2023-05-17T22:19:40.681Z,9.40
2023-05-17T22:22:07.850Z,9.40
2023-05-17T22:24:34.615Z,9.40
2023-05-17T22:27:01.529Z,9.40
2023-05-17T22:29:28.308Z,9.40
2023-05-17T22:31:55.038Z,9.40
2023-05-17T22:34:21.958Z,9.50
2023-05-17T22:36:48.856Z,9.50
2023-05-17T22:39:15.550Z,9.50
2023-05-17T22:41:42.199Z,9.50
2023-05-17T22:44:08.893Z,9.50
2023-05-17T22:46:37.929Z,9.50
2023-05-17T22:49:04.669Z,9.50
2023-05-17T22:51:35.099Z,9.50
2023-05-17T22:54:02.501Z,9.40
2023-05-17T22:56:29.221Z,9.40
2023-05-17T22:58:55.994Z,9.40
2023-05-17T23:01:22.762Z,9.40
2023-05-17T23:03:49.683Z,9.40
2023-05-17T23:06:16.357Z,9.40
2023-05-17T23:08:43.079Z,9.40
2023-05-17T23:11:09.791Z,9.40
2023-05-17T23:13:36.468Z,9.40
2023-05-17T23:16:04.247Z,9.40
2023-05-17T23:18:31.129Z,9.50
2023-05-17T23:20:59.018Z,9.50
2023-05-17T23:23:26.192Z,9.50
2023-05-17T23:25:56.369Z,9.50
2023-05-17T23:28:26.646Z,9.50
2023-05-17T23:30:54.481Z,9.50
2023-05-17T23:33:21.219Z,9.50
2023-05-17T23:35:47.895Z,9.50
2023-05-17T23:38:14.581Z,9.50
2023-05-17T23:40:41.758Z,9.50
2023-05-17T23:43:10.040Z,9.50
2023-05-17T23:45:36.938Z,9.50
2023-05-17T23:48:03.748Z,9.50
2023-05-17T23:50:30.549Z,9.50
2023-05-17T23:52:57.224Z,9.50
2023-05-17T23:55:23.934Z,9.50
2023-05-17T23:57:50.607Z,9.40
